createdAt,value
2018-04-18T00:02:22.381Z,12.00
2018-04-18T00:04:49.978Z,12.33
2018-04-18T00:07:17.640Z,13.13
2018-04-18T00:09:45.242Z,11.90
2018-04-18T00:12:12.896Z,11.43
2018-04-18T00:14:40.528Z,11.77
2018-04-18T00:17:08.128Z,11.73
2018-04-18T00:19:35.744Z,11.80
2018-04-18T00:22:03.405Z,11.27
2018-04-18T00:24:31.012Z,12.47
2018-04-18T00:26:58.627Z,12.07
2018-04-18T00:29:26.275Z,11.73
2018-04-18T00:31:53.898Z,12.60
2018-04-18T00:34:21.497Z,13.43
2018-04-18T00:36:49.136Z,11.83
2018-04-18T00:39:16.748Z,12.37
2018-04-18T00:41:44.514Z,14.07
2018-04-18T00:44:12.187Z,11.57
2018-04-18T00:46:39.779Z,13.60
2018-04-18T00:49:07.407Z,12.30
2018-04-18T00:51:35.938Z,11.67
2018-04-18T00:54:03.534Z,12.33
2018-04-18T00:56:31.124Z,12.27
2018-04-18T00:58:58.911Z,12.57
2018-04-18T01:01:27.324Z,13.10
2018-04-18T01:03:54.926Z,11.73
2018-04-18T01:06:22.589Z,11.70
2018-04-18T01:08:50.205Z,12.50
2018-04-18T01:11:17.803Z,12.50
2018-04-18T01:13:45.458Z,12.43
2018-04-18T01:16:13.057Z,12.00
2018-04-18T01:18:40.664Z,12.60
2018-04-18T01:21:08.308Z,12.97
2018-04-18T01:23:35.906Z,15.10
2018-04-18T01:26:03.496Z,13.67
2018-04-18T01:28:31.213Z,13.50
2018-04-18T01:30:58.823Z,15.50
2018-04-18T01:33:26.452Z,12.40
2018-04-18T01:35:54.093Z,15.77
2018-04-18T01:38:21.709Z,13.57
2018-04-18T01:40:49.309Z,12.20
2018-04-18T01:43:16.942Z,13.50
2018-04-18T01:45:44.536Z,13.30
2018-04-18T01:48:12.141Z,12.10
2018-04-18T01:50:39.775Z,12.60
2018-04-18T01:53:07.369Z,10.47
2018-04-18T01:55:34.972Z,13.33
2018-04-18T01:58:02.596Z,11.13
2018-04-18T02:00:30.227Z,12.80
2018-04-18T02:02:57.832Z,13.63
2018-04-18T02:05:25.468Z,14.63
2018-04-18T02:07:53.060Z,13.87
2018-04-18T02:10:20.638Z,13.13
2018-04-18T02:12:48.276Z,13.13
2018-04-18T02:15:15.867Z,14.77
2018-04-18T02:17:43.453Z,13.70
2018-04-18T02:20:11.094Z,15.90
2018-04-18T02:22:38.698Z,14.67
2018-04-18T02:25:06.293Z,17.50
2018-04-18T02:27:33.933Z,16.77
2018-04-18T02:30:01.582Z,15.60
2018-04-18T02:32:29.210Z,14.07
2018-04-18T02:34:56.874Z,14.00
2018-04-18T02:37:24.468Z,14.30
2018-04-18T02:39:52.061Z,15.80
2018-04-18T02:42:19.692Z,15.57
2018-04-18T02:44:47.296Z,14.43
2018-04-18T02:47:14.903Z,13.70
2018-04-18T02:49:42.569Z,16.20
2018-04-18T02:52:10.164Z,14.40
2018-04-18T02:54:37.815Z,15.83
2018-04-18T02:57:05.474Z,14.93
2018-04-18T02:59:33.123Z,16.17
2018-04-18T03:02:00.715Z,13.27
2018-04-18T03:04:28.358Z,15.70
2018-04-18T03:06:55.973Z,12.30
2018-04-18T03:09:23.591Z,16.67
2018-04-18T03:11:51.224Z,13.43
2018-04-18T03:14:18.821Z,15.67
2018-04-18T03:16:46.414Z,17.67
2018-04-18T03:19:14.093Z,18.53
2018-04-18T03:21:41.697Z,19.07
2018-04-18T03:24:09.296Z,16.10
2018-04-18T03:26:36.973Z,16.20
2018-04-18T03:29:04.573Z,15.73
2018-04-18T03:31:32.172Z,15.80
2018-04-18T03:33:59.797Z,14.90
2018-04-18T03:36:27.389Z,14.30
2018-04-18T03:38:54.988Z,16.00
2018-04-18T03:41:22.600Z,15.10
2018-04-18T03:43:50.193Z,15.70
2018-04-18T03:46:17.777Z,15.53
2018-04-18T03:48:45.389Z,14.60
2018-04-18T03:51:12.983Z,15.10
2018-04-18T03:53:40.585Z,16.80
2018-04-18T03:56:08.229Z,17.10
2018-04-18T03:58:35.823Z,15.40
2018-04-18T04:01:03.420Z,14.90
2018-04-18T04:03:31.052Z,16.27
2018-04-18T04:05:58.644Z,16.33
2018-04-18T04:08:26.275Z,14.80
2018-04-18T04:10:53.899Z,14.17
2018-04-18T04:13:21.549Z,15.17
2018-04-18T04:15:49.148Z,15.20
2018-04-18T04:18:28.626Z,14.60
2018-04-18T04:21:07.981Z,14.43
2018-04-18T04:23:47.396Z,12.40
2018-04-18T04:26:15.001Z,12.33
2018-04-18T04:28:42.600Z,10.10
2018-04-18T04:31:10.245Z,11.70
2018-04-18T04:33:37.886Z,13.50
2018-04-18T04:36:05.558Z,13.03
2018-04-18T04:38:33.267Z,11.50
2018-04-18T04:41:00.862Z,11.73
2018-04-18T04:43:28.461Z,11.53
2018-04-18T04:45:56.459Z,12.20
2018-04-18T04:48:24.059Z,12.70
2018-04-18T04:50:51.710Z,12.40
2018-04-18T04:53:19.578Z,11.30
2018-04-18T04:55:47.192Z,12.07
2018-04-18T04:58:14.824Z,10.70
2018-04-18T05:00:42.565Z,9.63
2018-04-18T05:03:10.160Z,10.63
2018-04-18T05:05:37.808Z,10.03
2018-04-18T05:08:05.435Z,10.23
2018-04-18T05:10:33.141Z,11.43
2018-04-18T05:13:00.744Z,12.90
2018-04-18T05:15:28.369Z,11.97
2018-04-18T05:17:55.968Z,12.60
2018-04-18T05:20:23.547Z,12.13
2018-04-18T05:22:51.180Z,12.57
2018-04-18T05:25:18.781Z,15.37
2018-04-18T05:27:46.386Z,11.20
2018-04-18T05:30:14.046Z,12.30
2018-04-18T05:32:41.686Z,11.63
2018-04-18T05:35:09.293Z,11.27
2018-04-18T05:37:36.925Z,12.93
2018-04-18T05:40:04.535Z,12.47
2018-04-18T05:42:32.136Z,13.03
2018-04-18T05:44:59.768Z,13.70
2018-04-18T05:47:27.370Z,11.33
2018-04-18T05:49:54.977Z,11.70
2018-04-18T05:52:22.608Z,12.97
2018-04-18T05:54:50.221Z,13.33
2018-04-18T05:57:17.851Z,12.60
2018-04-18T05:59:45.496Z,12.20
2018-04-18T06:02:13.121Z,11.50
2018-04-18T06:04:40.758Z,11.73
2018-04-18T06:07:08.396Z,12.53
2018-04-18T06:09:35.996Z,12.10
2018-04-18T06:12:03.585Z,9.43
2018-04-18T06:14:31.319Z,11.00
2018-04-18T06:16:58.901Z,11.50
2018-04-18T06:19:26.592Z,11.07
2018-04-18T06:21:54.465Z,11.00
2018-04-18T06:24:22.131Z,11.97
2018-04-18T06:26:49.788Z,10.10
2018-04-18T06:29:17.444Z,11.23
2018-04-18T06:31:45.031Z,10.67
2018-04-18T06:34:12.620Z,10.93
2018-04-18T06:36:40.433Z,10.13
2018-04-18T06:39:08.033Z,10.47
2018-04-18T06:41:35.617Z,9.43
2018-04-18T06:44:03.247Z,9.40
2018-04-18T06:46:30.841Z,10.33
2018-04-18T06:48:58.442Z,10.70
2018-04-18T06:51:26.566Z,9.97
2018-04-18T06:53:54.183Z,10.40
2018-04-18T06:56:21.801Z,11.17
2018-04-18T06:58:49.441Z,10.60
2018-04-18T07:01:17.055Z,11.30
2018-04-18T07:03:44.656Z,10.90
2018-04-18T07:06:12.290Z,11.00
2018-04-18T07:08:39.889Z,10.67
2018-04-18T07:11:07.522Z,11.00
2018-04-18T07:13:35.200Z,9.80
2018-04-18T07:16:02.837Z,11.23
2018-04-18T07:18:30.436Z,12.20
2018-04-18T07:20:58.126Z,9.50
2018-04-18T07:23:25.755Z,11.30
2018-04-18T07:25:53.357Z,10.17
2018-04-18T07:28:20.998Z,11.40
2018-04-18T07:30:48.603Z,11.10
2018-04-18T07:33:16.204Z,10.87
2018-04-18T07:35:43.836Z,11.90
2018-04-18T07:38:11.434Z,11.33
2018-04-18T07:40:39.020Z,13.13
2018-04-18T07:43:06.650Z,11.03
2018-04-18T07:45:34.239Z,10.43
2018-04-18T07:48:01.834Z,9.73
2018-04-18T07:50:29.470Z,10.57
2018-04-18T07:52:57.065Z,7.63
2018-04-18T07:55:24.667Z,8.63
2018-04-18T07:57:52.336Z,8.40
2018-04-18T08:00:19.943Z,8.10
2018-04-18T08:02:47.539Z,12.17
2018-04-18T08:05:15.174Z,8.53
2018-04-18T08:07:42.775Z,9.20
2018-04-18T08:10:10.445Z,10.40
2018-04-18T08:12:38.138Z,11.50
2018-04-18T08:15:05.733Z,9.90
2018-04-18T08:17:33.328Z,8.43
2018-04-18T08:20:00.969Z,10.67
2018-04-18T08:22:28.608Z,11.23
2018-04-18T08:24:56.244Z,11.40
2018-04-18T08:27:23.889Z,9.93
2018-04-18T08:29:51.511Z,10.20
2018-04-18T08:32:19.105Z,8.70
2018-04-18T08:34:46.742Z,7.93
2018-04-18T08:37:14.337Z,7.57
2018-04-18T08:39:41.941Z,7.80
2018-04-18T08:42:09.575Z,8.40
2018-04-18T08:44:37.164Z,7.20
2018-04-18T08:47:04.790Z,6.87
2018-04-18T08:49:32.478Z,7.43
2018-04-18T08:52:00.077Z,8.20
2018-04-18T08:54:27.671Z,7.37
2018-04-18T08:56:55.342Z,10.00
2018-04-18T08:59:22.989Z,7.83
2018-04-18T09:01:50.583Z,8.03
2018-04-18T09:04:18.239Z,5.77
2018-04-18T09:06:45.848Z,6.73
2018-04-18T09:09:13.453Z,7.10
2018-04-18T09:11:41.089Z,7.10
2018-04-18T09:14:08.682Z,6.27
2018-04-18T09:16:36.289Z,5.57
2018-04-18T09:19:04.695Z,6.30
2018-04-18T09:21:32.306Z,7.70
2018-04-18T09:23:59.901Z,7.33
2018-04-18T09:26:28.398Z,7.67
2018-04-18T09:28:55.999Z,8.00
2018-04-18T09:31:23.594Z,7.10
2018-04-18T09:33:51.260Z,8.07
2018-04-18T09:36:18.867Z,6.93
2018-04-18T09:38:46.466Z,6.90
2018-04-18T09:41:14.103Z,5.50
2018-04-18T09:43:41.701Z,6.37
2018-04-18T09:46:09.303Z,5.50
2018-04-18T09:48:36.938Z,6.20
2018-04-18T09:51:04.536Z,7.83
2018-04-18T09:53:32.127Z,5.87
2018-04-18T09:55:59.753Z,6.40
2018-04-18T09:58:27.396Z,6.73
2018-04-18T10:00:57.424Z,7.13
2018-04-18T10:03:25.051Z,6.27
2018-04-18T10:05:52.658Z,5.63
2018-04-18T10:08:20.302Z,7.10
2018-04-18T10:10:47.931Z,5.77
2018-04-18T10:13:15.593Z,7.60
2018-04-18T10:15:43.210Z,6.47
2018-04-18T10:18:10.847Z,5.67
2018-04-18T10:20:38.436Z,6.43
2018-04-18T10:23:06.050Z,5.60
2018-04-18T10:25:33.784Z,6.73
2018-04-18T10:28:01.381Z,6.23
2018-04-18T10:30:28.976Z,6.03
2018-04-18T10:32:56.602Z,6.03
2018-04-18T10:35:24.199Z,7.67
2018-04-18T10:37:51.798Z,7.10
2018-04-18T10:40:19.420Z,6.67
2018-04-18T10:42:47.069Z,6.07
2018-04-18T10:45:14.701Z,7.53
2018-04-18T10:47:42.332Z,7.30
2018-04-18T10:50:09.934Z,7.93
2018-04-18T10:52:37.533Z,8.20
2018-04-18T10:55:05.161Z,6.90
2018-04-18T10:57:32.748Z,6.90
2018-04-18T11:00:00.341Z,6.53
2018-04-18T11:02:27.998Z,5.63
2018-04-18T11:04:55.588Z,8.13
2018-04-18T11:07:23.221Z,6.77
2018-04-18T11:09:50.900Z,7.23
2018-04-18T11:12:18.497Z,6.43
2018-04-18T11:14:46.141Z,6.43
2018-04-18T11:17:13.761Z,6.77
2018-04-18T11:19:44.261Z,8.03
2018-04-18T11:22:16.423Z,6.80
2018-04-18T11:24:44.321Z,7.57
2018-04-18T11:27:11.952Z,8.80
2018-04-18T11:29:39.593Z,6.80
2018-04-18T11:32:07.177Z,7.27
2018-04-18T11:34:34.756Z,8.73
2018-04-18T11:37:02.403Z,6.57
2018-04-18T11:39:30.000Z,7.37
2018-04-18T11:41:57.588Z,8.10
2018-04-18T11:44:25.200Z,7.30
2018-04-18T11:46:52.797Z,9.40
2018-04-18T11:49:20.728Z,7.67
2018-04-18T11:51:48.373Z,7.20
2018-04-18T11:54:16.036Z,8.53
2018-04-18T11:56:43.639Z,8.50
2018-04-18T11:59:11.267Z,8.33
2018-04-18T12:01:38.871Z,7.77
2018-04-18T12:04:06.504Z,7.13
2018-04-18T12:06:34.147Z,8.13
2018-04-18T12:09:01.747Z,6.50
2018-04-18T12:11:29.417Z,7.30
2018-04-18T12:13:57.085Z,6.47
2018-04-18T12:16:24.708Z,6.10
2018-04-18T12:18:52.306Z,6.00
2018-04-18T12:21:19.961Z,7.10
2018-04-18T12:23:47.591Z,7.37
2018-04-18T12:26:15.193Z,7.30
2018-04-18T12:28:42.889Z,6.60
2018-04-18T12:31:10.483Z,7.60
2018-04-18T12:33:38.071Z,7.20
2018-04-18T12:36:05.787Z,6.60
2018-04-18T12:38:33.372Z,7.23
2018-04-18T12:41:00.998Z,7.27
2018-04-18T12:43:28.777Z,6.60
2018-04-18T12:45:56.488Z,7.33
2018-04-18T12:48:24.077Z,8.07
2018-04-18T12:50:51.701Z,6.83
2018-04-18T12:53:19.334Z,7.37
2018-04-18T12:55:46.903Z,8.33
2018-04-18T12:58:20.562Z,7.30
2018-04-18T13:00:48.206Z,7.00
2018-04-18T13:03:15.808Z,7.60
2018-04-18T13:05:43.451Z,8.40
2018-04-18T13:08:11.115Z,8.30
2018-04-18T13:10:38.729Z,8.57
2018-04-18T13:13:06.399Z,7.63
2018-04-18T13:15:34.068Z,7.70
2018-04-18T13:18:01.698Z,9.70
2018-04-18T13:20:29.334Z,9.73
2018-04-18T13:22:56.944Z,9.10
2018-04-18T13:25:24.604Z,10.80
2018-04-18T13:27:52.272Z,8.30
2018-04-18T13:30:19.893Z,8.57
2018-04-18T13:32:47.485Z,8.27
2018-04-18T13:35:15.114Z,7.30
2018-04-18T13:37:42.749Z,8.50
2018-04-18T13:40:10.398Z,9.27
2018-04-18T13:42:38.074Z,8.00
2018-04-18T13:45:05.716Z,9.30
2018-04-18T13:47:33.348Z,8.70
2018-04-18T13:50:01.000Z,9.53
2018-04-18T13:52:28.592Z,9.07
2018-04-18T13:54:56.232Z,10.57
2018-04-18T13:57:23.866Z,7.87
2018-04-18T13:59:51.455Z,7.50
2018-04-18T14:02:19.055Z,8.03
2018-04-18T14:04:46.680Z,8.83
2018-04-18T14:07:14.284Z,9.50
2018-04-18T14:09:41.897Z,9.27
2018-04-18T14:12:09.537Z,11.33
2018-04-18T14:14:37.251Z,9.30
2018-04-18T14:17:04.836Z,9.40
2018-04-18T14:19:32.464Z,8.47
2018-04-18T14:22:00.061Z,8.03
2018-04-18T14:24:27.660Z,8.37
2018-04-18T14:26:55.279Z,9.03
2018-04-18T14:29:22.867Z,8.87
2018-04-18T14:31:50.467Z,11.27
2018-04-18T14:34:18.094Z,11.70
2018-04-18T14:36:45.688Z,9.00
2018-04-18T14:39:13.285Z,8.30
2018-04-18T14:41:40.906Z,8.47
2018-04-18T14:44:08.527Z,9.70
2018-04-18T14:46:36.119Z,8.57
2018-04-18T14:49:03.750Z,9.43
2018-04-18T14:51:31.342Z,8.20
2018-04-18T14:53:58.931Z,8.60
2018-04-18T14:56:26.545Z,8.90
2018-04-18T14:58:54.195Z,8.43
2018-04-18T15:01:21.791Z,8.97
2018-04-18T15:03:49.457Z,8.30
2018-04-18T15:06:17.049Z,9.07
2018-04-18T15:08:44.700Z,9.90
2018-04-18T15:11:12.337Z,10.07
2018-04-18T15:13:39.936Z,10.43
2018-04-18T15:16:12.417Z,10.00
2018-04-18T15:18:40.021Z,11.13
2018-04-18T15:21:07.605Z,10.93
2018-04-18T15:23:35.244Z,9.67
2018-04-18T15:26:02.844Z,10.83
2018-04-18T15:28:30.541Z,10.63
2018-04-18T15:30:58.153Z,9.70
2018-04-18T15:33:25.745Z,10.83
2018-04-18T15:35:53.385Z,10.10
2018-04-18T15:38:21.027Z,11.57
2018-04-18T15:40:48.629Z,10.17
2018-04-18T15:43:16.216Z,10.90
2018-04-18T15:45:43.836Z,9.70
2018-04-18T15:48:11.431Z,10.40
2018-04-18T15:50:39.025Z,11.93
2018-04-18T15:53:06.659Z,9.57
2018-04-18T15:55:34.334Z,12.30
2018-04-18T15:58:01.957Z,11.57
2018-04-18T16:00:29.631Z,12.50
2018-04-18T16:02:57.226Z,11.00
2018-04-18T16:05:24.850Z,10.70
2018-04-18T16:07:52.469Z,10.00
2018-04-18T16:10:20.058Z,11.57
2018-04-18T16:12:47.655Z,9.57
2018-04-18T16:15:15.282Z,11.00
2018-04-18T16:17:42.904Z,11.27
2018-04-18T16:20:10.543Z,11.33
2018-04-18T16:22:38.182Z,12.30
2018-04-18T16:25:05.821Z,11.87
2018-04-18T16:27:33.434Z,11.77
2018-04-18T16:30:01.091Z,11.50
2018-04-18T16:32:28.736Z,12.60
2018-04-18T16:34:56.333Z,12.63
2018-04-18T16:37:23.960Z,13.13
2018-04-18T16:39:51.601Z,12.70
2018-04-18T16:42:19.220Z,13.47
2018-04-18T16:44:46.877Z,10.10
2018-04-18T16:47:14.487Z,10.57
2018-04-18T16:49:42.089Z,11.47
2018-04-18T16:52:09.746Z,12.13
2018-04-18T16:54:37.340Z,12.23
2018-04-18T16:57:04.940Z,14.60
2018-04-18T16:59:32.584Z,12.83
2018-04-18T17:02:00.245Z,10.50
2018-04-18T17:04:27.842Z,11.43
2018-04-18T17:06:55.503Z,16.27
2018-04-18T17:09:23.115Z,14.33
2018-04-18T17:11:50.735Z,13.63
2018-04-18T17:14:18.436Z,14.10
2018-04-18T17:16:46.145Z,14.30
2018-04-18T17:19:13.808Z,13.37
2018-04-18T17:21:41.653Z,12.43
2018-04-18T17:24:09.241Z,12.33
2018-04-18T17:26:36.835Z,12.20
2018-04-18T17:29:04.494Z,12.73
2018-04-18T17:31:32.126Z,10.90
2018-04-18T17:33:59.788Z,11.00
2018-04-18T17:36:27.637Z,10.90
2018-04-18T17:38:55.305Z,9.87
2018-04-18T17:41:22.975Z,11.00
2018-04-18T17:43:50.805Z,13.00
2018-04-18T17:46:18.400Z,11.80
2018-04-18T17:48:46.218Z,11.07
2018-04-18T17:51:14.027Z,12.07
2018-04-18T17:53:41.694Z,12.13
2018-04-18T17:56:09.395Z,12.93
2018-04-18T17:58:37.024Z,11.20
2018-04-18T18:01:04.890Z,12.07
2018-04-18T18:03:32.594Z,9.63
2018-04-18T18:06:00.420Z,9.63
2018-04-18T18:08:28.081Z,11.20
2018-04-18T18:10:55.731Z,11.90
2018-04-18T18:13:23.616Z,10.80
2018-04-18T18:15:51.605Z,11.00
2018-04-18T18:18:19.546Z,11.23
2018-04-18T18:20:47.172Z,9.80
2018-04-18T18:23:14.755Z,11.47
2018-04-18T18:25:42.329Z,13.23
2018-04-18T18:28:09.946Z,14.83
2018-04-18T18:30:37.531Z,11.87
2018-04-18T18:33:05.116Z,11.00
2018-04-18T18:35:32.752Z,11.60
2018-04-18T18:38:00.394Z,11.33
2018-04-18T18:40:27.968Z,11.43
2018-04-18T18:42:55.601Z,12.90
2018-04-18T18:45:23.269Z,13.63
2018-04-18T18:47:50.901Z,12.13
2018-04-18T18:50:18.583Z,11.90
2018-04-18T18:52:46.437Z,11.73
2018-04-18T18:55:14.059Z,12.60
2018-04-18T18:57:41.844Z,13.67
2018-04-18T19:00:09.594Z,12.07
2018-04-18T19:02:37.262Z,15.20
2018-04-18T19:05:04.904Z,14.00
2018-04-18T19:07:32.578Z,13.53
2018-04-18T19:10:00.165Z,12.97
2018-04-18T19:12:28.119Z,14.43
2018-04-18T19:14:55.779Z,13.23
2018-04-18T19:17:23.455Z,13.30
2018-04-18T19:19:51.081Z,12.77
2018-04-18T19:22:24.412Z,13.20
2018-04-18T19:24:52.066Z,12.30
2018-04-18T19:27:19.653Z,11.00
2018-04-18T19:29:47.694Z,13.93
2018-04-18T19:32:15.393Z,14.63
2018-04-18T19:34:42.996Z,14.20
2018-04-18T19:37:10.679Z,13.03
2018-04-18T19:39:38.575Z,13.40
2018-04-18T19:42:06.229Z,15.03
2018-04-18T19:44:33.828Z,15.17
2018-04-18T19:47:01.535Z,13.83
2018-04-18T19:49:29.182Z,13.17
2018-04-18T19:51:56.843Z,13.90
2018-04-18T19:54:24.547Z,13.60
2018-04-18T19:56:52.526Z,15.10
2018-04-18T19:59:20.499Z,15.83
2018-04-18T20:01:48.509Z,14.30
2018-04-18T20:06:50.993Z,15.70
2018-04-18T20:09:18.589Z,14.80
2018-04-18T20:11:46.212Z,14.03
2018-04-18T20:14:13.829Z,14.20
2018-04-18T20:16:41.429Z,14.60
2018-04-18T20:19:09.026Z,20.87
2018-04-18T20:21:36.657Z,16.10
2018-04-18T20:24:04.262Z,16.40
2018-04-18T20:26:31.862Z,14.80
2018-04-18T20:28:59.503Z,13.83
2018-04-18T20:31:27.658Z,15.30
2018-04-18T20:33:55.270Z,14.57
2018-04-18T20:36:22.912Z,15.37
2018-04-18T20:38:50.536Z,14.40
2018-04-18T20:41:18.128Z,14.43
2018-04-18T20:43:45.769Z,15.17
2018-04-18T20:46:13.379Z,17.03
2018-04-18T20:48:40.961Z,16.70
2018-04-18T20:51:08.603Z,15.20
2018-04-18T20:53:36.341Z,14.43
2018-04-18T20:56:05.175Z,16.33
2018-04-18T20:58:32.834Z,14.43
2018-04-18T21:01:00.416Z,16.03
2018-04-18T21:03:28.005Z,16.40
2018-04-18T21:05:55.668Z,19.70
2018-04-18T21:08:23.326Z,16.83
2018-04-18T21:10:50.933Z,16.40
2018-04-18T21:13:18.590Z,15.80
2018-04-18T21:15:46.270Z,16.43
2018-04-18T21:18:13.886Z,16.83
2018-04-18T21:20:41.539Z,18.23
2018-04-18T21:23:09.167Z,16.90
2018-04-18T21:25:36.821Z,16.00
2018-04-18T21:28:04.497Z,16.10
2018-04-18T21:30:32.136Z,15.33
2018-04-18T21:32:59.792Z,15.43
2018-04-18T21:35:27.453Z,15.60
2018-04-18T21:37:55.049Z,14.10
2018-04-18T21:40:22.655Z,15.47
2018-04-18T21:42:50.413Z,15.43
2018-04-18T21:45:18.095Z,15.60
2018-04-18T21:47:45.689Z,15.97
2018-04-18T21:50:13.341Z,14.90
2018-04-18T21:52:40.952Z,14.83
2018-04-18T21:55:09.752Z,14.43
2018-04-18T21:57:37.390Z,17.07
2018-04-18T22:00:05.089Z,15.93
2018-04-18T22:02:32.702Z,15.33
2018-04-18T22:05:00.343Z,14.40
2018-04-18T22:07:27.996Z,15.40
2018-04-18T22:09:55.637Z,17.70
2018-04-18T22:12:23.271Z,17.23
2018-04-18T22:14:50.873Z,16.80
2018-04-18T22:17:18.485Z,17.07
2018-04-18T22:19:46.121Z,16.70
2018-04-18T22:22:13.757Z,17.83
2018-04-18T22:24:41.380Z,15.50
2018-04-18T22:27:09.085Z,15.67
2018-04-18T22:29:36.685Z,15.77
2018-04-18T22:32:04.281Z,15.20
2018-04-18T22:34:31.918Z,16.30
2018-04-18T22:36:59.584Z,15.60
2018-04-18T22:39:27.288Z,17.40
2018-04-18T22:41:55.745Z,15.83
2018-04-18T22:44:23.348Z,15.83
2018-04-18T22:46:50.951Z,16.33
2018-04-18T22:49:18.589Z,15.70
2018-04-18T22:51:46.181Z,18.13
2018-04-18T22:54:13.783Z,16.10
2018-04-18T22:56:41.420Z,16.67
2018-04-18T22:59:09.057Z,17.23
2018-04-18T23:01:36.674Z,16.60
2018-04-18T23:04:04.330Z,17.07
2018-04-18T23:06:31.935Z,15.20
2018-04-18T23:08:59.556Z,16.23
2018-04-18T23:11:27.744Z,15.53
2018-04-18T23:13:55.363Z,16.10
2018-04-18T23:16:22.973Z,17.03
2018-04-18T23:18:50.657Z,17.20
2018-04-18T23:21:18.288Z,16.00
2018-04-18T23:23:45.886Z,16.23
2018-04-18T23:26:13.527Z,15.80
2018-04-18T23:28:41.134Z,15.57
2018-04-18T23:31:08.835Z,16.33
2018-04-18T23:33:36.565Z,16.43
2018-04-18T23:36:04.165Z,16.70
2018-04-18T23:38:31.763Z,17.00
2018-04-18T23:40:59.391Z,17.43
2018-04-18T23:43:26.990Z,17.30
2018-04-18T23:45:54.592Z,15.77
2018-04-18T23:48:22.550Z,16.50
2018-04-18T23:50:50.141Z,15.87
2018-04-18T23:53:17.733Z,16.27
2018-04-18T23:55:45.374Z,17.27
2018-04-18T23:58:12.969Z,16.43
